createdAt,value
2023-03-02T00:00:49.041Z,9.60
2023-03-02T00:02:50.632Z,9.57
2023-03-02T00:04:56.799Z,9.48
2023-03-02T00:07:01.754Z,9.40
2023-03-02T00:09:04.873Z,9.31
2023-03-02T00:11:06.635Z,9.26
2023-03-02T00:13:08.333Z,9.30
2023-03-02T00:15:10.484Z,9.23
2023-03-02T00:17:12.053Z,9.28
2023-03-02T00:19:13.660Z,9.35
2023-03-02T00:21:16.594Z,9.39
2023-03-02T00:23:18.165Z,9.38
2023-03-02T00:25:19.879Z,9.37
2023-03-02T00:27:21.450Z,9.38
2023-03-02T00:29:23.106Z,9.36
2023-03-02T00:31:30.880Z,9.38
2023-03-02T00:33:32.517Z,9.40
2023-03-02T00:35:37.765Z,9.29
2023-03-02T00:37:40.760Z,9.21
2023-03-02T00:39:42.698Z,9.24
2023-03-02T00:41:44.313Z,9.23
2023-03-02T00:43:45.874Z,9.22
2023-03-02T00:45:47.397Z,9.19
2023-03-02T00:47:48.985Z,9.21
2023-03-02T00:49:50.869Z,9.18
2023-03-02T00:51:52.487Z,9.16
2023-03-02T00:53:55.418Z,9.13
2023-03-02T00:55:57.030Z,9.13
2023-03-02T00:58:01.237Z,9.11
2023-03-02T01:00:03.919Z,9.03
2023-03-02T01:02:06.193Z,9.06
2023-03-02T01:04:07.740Z,8.95
2023-03-02T01:06:15.130Z,8.84
2023-03-02T01:08:16.746Z,8.86
2023-03-02T01:10:19.892Z,8.75
2023-03-02T01:12:21.466Z,8.79
2023-03-02T01:14:23.161Z,8.80
2023-03-02T01:16:24.728Z,8.74
2023-03-02T01:18:26.290Z,8.68
2023-03-02T01:20:28.693Z,8.74
2023-03-02T01:22:30.231Z,8.80
2023-03-02T01:24:32.216Z,8.81
2023-03-02T01:26:38.005Z,8.87
2023-03-02T01:28:39.585Z,8.85
2023-03-02T01:30:41.101Z,8.80
2023-03-02T01:32:42.721Z,8.84
2023-03-02T01:34:44.521Z,8.86
2023-03-02T01:36:46.076Z,8.91
2023-03-02T01:38:47.852Z,8.94
2023-03-02T01:40:49.386Z,8.90
2023-03-02T01:42:57.750Z,8.89
2023-03-02T01:44:59.471Z,8.85
2023-03-02T01:47:02.599Z,8.88
2023-03-02T01:49:06.962Z,8.79
2023-03-02T01:51:11.411Z,8.76
2023-03-02T01:53:14.330Z,8.73
2023-03-02T01:55:20.029Z,8.74
2023-03-02T01:57:26.052Z,8.76
2023-03-02T01:59:31.680Z,8.73
2023-03-02T02:01:37.039Z,8.78
2023-03-02T02:03:38.825Z,8.70
2023-03-02T02:05:44.039Z,8.72
2023-03-02T02:07:45.866Z,8.74
2023-03-02T02:09:51.512Z,8.72
2023-03-02T02:11:53.099Z,8.73
2023-03-02T02:13:58.112Z,8.70
2023-03-02T02:16:01.137Z,8.76
2023-03-02T02:18:02.760Z,8.79
2023-03-02T02:20:20.401Z,8.78
2023-03-02T02:22:36.292Z,8.78
2023-03-02T02:24:44.035Z,8.79
2023-03-02T02:26:49.902Z,8.80
2023-03-02T02:28:57.865Z,8.74
2023-03-02T02:31:10.878Z,8.75
2023-03-02T02:33:16.660Z,8.72
2023-03-02T02:35:21.344Z,8.74
2023-03-02T02:37:27.515Z,8.77
2023-03-02T02:39:33.497Z,8.76
2023-03-02T02:41:38.637Z,8.75
2023-03-02T02:43:41.751Z,8.74
2023-03-02T02:45:44.326Z,8.76
2023-03-02T02:47:46.184Z,8.78
2023-03-02T02:49:52.857Z,8.82
2023-03-02T02:51:54.558Z,8.80
2023-03-02T02:53:59.072Z,8.76
2023-03-02T02:56:01.434Z,8.81
2023-03-02T02:58:09.052Z,8.74
2023-03-02T03:00:18.926Z,8.74
2023-03-02T03:02:25.802Z,8.64
2023-03-02T03:04:30.630Z,8.63
2023-03-02T03:06:34.739Z,8.64
2023-03-02T03:08:54.334Z,8.65
2023-03-02T03:10:57.717Z,8.57
2023-03-02T03:12:59.409Z,8.43
2023-03-02T03:15:10.076Z,8.34
2023-03-02T03:17:13.280Z,8.30
2023-03-02T03:19:19.960Z,8.30
2023-03-02T03:21:21.597Z,8.28
2023-03-02T03:23:23.307Z,8.26
2023-03-02T03:25:26.553Z,8.23
2023-03-02T03:27:28.314Z,8.25
2023-03-02T03:29:30.320Z,8.17
2023-03-02T03:31:32.262Z,8.17
2023-03-02T03:33:35.166Z,8.18
2023-03-02T03:35:37.334Z,8.06
2023-03-02T03:37:40.781Z,8.03
2023-03-02T03:39:44.751Z,8.03
2023-03-02T03:41:48.144Z,7.99
2023-03-02T03:43:50.086Z,7.92
2023-03-02T03:45:51.658Z,7.84
2023-03-02T03:47:53.203Z,7.79
2023-03-02T03:49:56.527Z,7.82
2023-03-02T03:51:58.287Z,7.79
2023-03-02T03:54:00.007Z,7.70
2023-03-02T03:56:02.195Z,7.75
2023-03-02T03:58:04.100Z,7.70
2023-03-02T04:00:09.328Z,7.75
2023-03-02T04:02:11.231Z,7.72
2023-03-02T04:04:15.635Z,7.72
2023-03-02T04:06:18.856Z,7.72
2023-03-02T04:08:20.665Z,7.67
2023-03-02T04:10:22.485Z,7.63
2023-03-02T04:12:24.415Z,7.63
2023-03-02T04:14:26.346Z,7.70
2023-03-02T04:16:28.249Z,7.75
2023-03-02T04:18:32.824Z,7.75
2023-03-02T04:20:37.293Z,7.80
2023-03-02T04:22:40.706Z,7.81
2023-03-02T04:24:42.778Z,7.85
2023-03-02T04:26:46.782Z,7.81
2023-03-02T04:28:48.564Z,7.76
2023-03-02T04:30:50.379Z,7.71
2023-03-02T04:32:53.086Z,7.78
2023-03-02T04:34:54.829Z,7.81
2023-03-02T04:36:59.079Z,7.88
2023-03-02T04:39:06.015Z,7.85
2023-03-02T04:41:08.204Z,7.77
2023-03-02T04:43:10.057Z,7.68
2023-03-02T04:45:13.241Z,7.52
2023-03-02T04:47:15.310Z,7.50
2023-03-02T04:49:18.565Z,7.49
2023-03-02T04:51:23.182Z,7.50
2023-03-02T04:53:24.993Z,7.46
2023-03-02T04:55:28.250Z,7.41
2023-03-02T04:57:29.994Z,7.40
2023-03-02T04:59:31.724Z,7.36
2023-03-02T05:01:36.553Z,7.38
2023-03-02T05:03:38.439Z,7.29
2023-03-02T05:05:40.287Z,7.26
2023-03-02T05:07:42.635Z,7.15
2023-03-02T05:09:44.549Z,7.13
2023-03-02T05:11:47.737Z,7.01
2023-03-02T05:13:49.874Z,7.01
2023-03-02T05:15:51.902Z,7.02
2023-03-02T05:17:53.888Z,7.00
2023-03-02T05:19:55.624Z,6.95
2023-03-02T05:21:57.519Z,6.92
2023-03-02T05:23:59.535Z,6.95
2023-03-02T05:26:01.848Z,6.94
2023-03-02T05:28:06.190Z,6.93
2023-03-02T05:30:09.287Z,6.97
2023-03-02T05:32:11.188Z,6.98
2023-03-02T05:36:47.628Z,6.94
2023-03-02T05:38:52.533Z,6.94
2023-03-02T05:40:54.541Z,6.83
2023-03-02T05:42:56.454Z,6.83
2023-03-02T05:45:01.947Z,6.78
2023-03-02T05:47:03.796Z,6.84
2023-03-02T05:49:05.824Z,6.86
2023-03-02T05:51:11.206Z,6.78
2023-03-02T05:53:13.073Z,6.79
2023-03-02T05:55:16.390Z,6.68
2023-03-02T05:57:18.216Z,6.67
2023-03-02T05:59:20.094Z,6.63
2023-03-02T06:01:23.370Z,6.68
2023-03-02T06:03:28.166Z,6.60
2023-03-02T06:05:30.248Z,6.64
2023-03-02T06:07:31.977Z,6.63
2023-03-02T06:09:33.862Z,6.68
2023-03-02T06:11:35.623Z,6.68
2023-03-02T06:13:37.945Z,6.60
2023-03-02T06:15:39.941Z,6.61
2023-03-02T06:17:43.318Z,6.71
2023-03-02T06:19:45.198Z,6.79
2023-03-02T06:21:46.890Z,6.79
2023-03-02T06:23:48.721Z,6.84
2023-03-02T06:25:50.639Z,6.82
2023-03-02T06:27:52.871Z,6.73
2023-03-02T06:29:54.837Z,6.73
2023-03-02T06:31:56.642Z,6.85
2023-03-02T06:34:01.147Z,6.88
2023-03-02T06:36:03.513Z,6.90
2023-03-02T06:38:05.321Z,6.92
2023-03-02T06:40:08.576Z,6.90
2023-03-02T06:42:10.466Z,6.86
2023-03-02T06:44:12.689Z,6.80
2023-03-02T06:46:14.548Z,6.83
2023-03-02T06:48:16.581Z,6.86
2023-03-02T06:50:20.157Z,6.88
2023-03-02T06:52:22.108Z,6.87
2023-03-02T06:54:24.183Z,6.89
2023-03-02T06:56:26.361Z,6.92
2023-03-02T06:58:28.171Z,6.90
2023-03-02T07:00:29.918Z,6.95
2023-03-02T07:02:31.580Z,6.97
2023-03-02T07:04:33.431Z,7.00
2023-03-02T07:06:36.997Z,7.05
2023-03-02T07:08:39.121Z,7.12
2023-03-02T07:10:40.799Z,7.14
2023-03-02T07:12:45.337Z,7.16
2023-03-02T07:14:47.259Z,7.05
2023-03-02T07:16:49.241Z,7.09
2023-03-02T07:18:51.314Z,7.12
2023-03-02T07:20:53.048Z,7.13
2023-03-02T07:22:56.631Z,7.14
2023-03-02T07:24:58.468Z,7.19
2023-03-02T07:27:00.276Z,7.20
2023-03-02T07:29:01.991Z,7.17
2023-03-02T07:31:04.012Z,7.25
2023-03-02T07:33:05.758Z,7.26
2023-03-02T07:35:08.082Z,7.25
2023-03-02T07:37:10.019Z,7.33
2023-03-02T07:39:18.748Z,7.45
2023-03-02T07:41:22.788Z,7.55
2023-03-02T07:43:24.819Z,7.65
2023-03-02T07:45:26.597Z,7.79
2023-03-02T07:47:28.329Z,7.97
2023-03-02T07:49:30.430Z,8.10
2023-03-02T07:51:32.547Z,8.25
2023-03-02T07:53:34.618Z,8.38
2023-03-02T07:55:40.444Z,8.52
2023-03-02T07:57:42.154Z,8.59
2023-03-02T07:59:44.455Z,8.81
2023-03-02T08:01:46.222Z,8.90
2023-03-02T08:03:47.929Z,8.99
2023-03-02T08:05:49.662Z,9.15
2023-03-02T08:07:51.452Z,9.35
2023-03-02T08:09:53.244Z,9.45
2023-03-02T08:11:56.385Z,9.59
2023-03-02T08:13:59.764Z,9.67
2023-03-02T08:16:03.040Z,9.76
2023-03-02T08:18:04.846Z,9.92
2023-03-02T08:20:07.638Z,10.02
2023-03-02T08:22:14.774Z,10.17
2023-03-02T08:24:16.565Z,10.33
2023-03-02T08:26:19.817Z,10.45
2023-03-02T08:28:23.417Z,10.57
2023-03-02T08:30:25.104Z,10.71
2023-03-02T08:32:26.923Z,10.82
2023-03-02T08:34:31.214Z,10.92
2023-03-02T08:36:33.324Z,10.99
2023-03-02T08:38:35.657Z,10.73
2023-03-02T08:40:37.605Z,10.78
2023-03-02T08:42:39.246Z,11.04
2023-03-02T08:44:42.476Z,11.17
2023-03-02T08:46:44.222Z,11.14
2023-03-02T08:48:46.356Z,11.13
2023-03-02T08:50:55.605Z,11.38
2023-03-02T08:52:59.208Z,11.39
2023-03-02T08:55:03.296Z,11.50
2023-03-02T08:57:09.727Z,11.65
2023-03-02T08:59:13.317Z,11.45
2023-03-02T09:01:18.483Z,11.51
2023-03-02T09:03:20.918Z,11.71
2023-03-02T09:05:22.701Z,11.87
2023-03-02T09:07:24.258Z,11.91
2023-03-02T09:09:26.337Z,12.08
2023-03-02T09:11:28.230Z,11.98
2023-03-02T09:13:29.912Z,12.04
2023-03-02T09:15:34.078Z,12.32
2023-03-02T09:17:37.000Z,12.35
2023-03-02T09:19:38.648Z,12.53
2023-03-02T09:21:40.645Z,12.41
2023-03-02T09:23:43.826Z,12.69
2023-03-02T09:25:46.438Z,12.95
2023-03-02T09:27:48.142Z,13.05
2023-03-02T09:29:49.953Z,13.20
2023-03-02T09:31:57.773Z,13.43
2023-03-02T09:34:00.953Z,13.41
2023-03-02T09:36:05.875Z,13.23
2023-03-02T09:38:07.837Z,13.30
2023-03-02T09:40:18.733Z,13.02
2023-03-02T09:43:01.104Z,13.17
2023-03-02T09:45:35.559Z,13.38
2023-03-02T09:47:47.478Z,13.29
2023-03-02T09:50:00.769Z,13.18
2023-03-02T09:52:10.807Z,13.49
2023-03-02T09:54:15.440Z,13.76
2023-03-02T09:56:19.471Z,14.03
2023-03-02T09:58:24.979Z,14.30
2023-03-02T10:00:30.627Z,14.25
2023-03-02T10:02:37.144Z,14.50
2023-03-02T10:04:44.781Z,14.73
2023-03-02T10:06:51.465Z,14.81
2023-03-02T10:08:53.215Z,14.37
2023-03-02T10:11:02.303Z,13.90
2023-03-02T10:13:17.378Z,13.88
2023-03-02T10:15:24.656Z,14.32
2023-03-02T10:17:56.511Z,14.73
2023-03-02T10:20:03.011Z,15.01
2023-03-02T10:22:15.715Z,15.26
2023-03-02T10:24:28.917Z,15.49
2023-03-02T10:26:38.644Z,15.69
2023-03-02T10:28:49.184Z,15.87
2023-03-02T10:30:56.982Z,16.03
2023-03-02T10:33:03.304Z,16.22
2023-03-02T10:35:16.175Z,16.43
2023-03-02T10:37:21.868Z,16.63
2023-03-02T10:39:23.688Z,16.85
2023-03-02T10:41:30.606Z,17.13
2023-03-02T10:43:38.901Z,17.33
2023-03-02T10:45:41.223Z,17.51
2023-03-02T10:47:42.937Z,17.66
2023-03-02T10:49:48.031Z,17.77
2023-03-02T10:51:56.254Z,17.71
2023-03-02T10:54:07.598Z,17.60
2023-03-02T10:56:20.303Z,17.74
2023-03-02T10:58:25.412Z,17.85
2023-03-02T11:00:29.940Z,17.68
2023-03-02T11:02:34.874Z,17.99
2023-03-02T11:04:36.807Z,18.19
2023-03-02T11:06:38.799Z,18.31
2023-03-02T11:08:40.662Z,18.04
2023-03-02T11:10:54.186Z,17.41
2023-03-02T11:12:56.861Z,17.63
2023-03-02T11:15:16.879Z,18.19
2023-03-02T11:17:31.343Z,18.56
2023-03-02T11:19:37.742Z,18.39
2023-03-02T11:21:44.078Z,18.61
2023-03-02T11:23:55.924Z,18.97
2023-03-02T11:26:05.422Z,19.22
2023-03-02T11:28:16.599Z,19.51
2023-03-02T11:30:22.443Z,19.67
2023-03-02T11:32:31.181Z,19.88
2023-03-02T11:34:40.652Z,20.10
2023-03-02T11:36:48.946Z,19.71
2023-03-02T11:38:54.584Z,19.96
2023-03-02T11:41:02.827Z,20.15
2023-03-02T11:43:04.691Z,20.18
2023-03-02T11:45:17.837Z,20.22
2023-03-02T11:47:21.971Z,20.34
2023-03-02T11:49:35.749Z,20.50
2023-03-02T11:51:47.288Z,20.62
2023-03-02T11:53:55.977Z,20.70
2023-03-02T11:55:57.674Z,20.72
2023-03-02T11:58:07.209Z,20.86
2023-03-02T12:00:21.376Z,20.83
2023-03-02T12:02:23.289Z,20.76
2023-03-02T12:04:29.471Z,20.84
2023-03-02T12:06:39.660Z,20.91
2023-03-02T12:08:44.353Z,20.95
2023-03-02T12:10:57.729Z,21.07
2023-03-02T12:13:12.589Z,20.94
2023-03-02T12:15:37.782Z,20.98
2023-03-02T12:17:42.450Z,21.10
2023-03-02T12:19:44.370Z,21.15
2023-03-02T12:21:58.731Z,21.23
2023-03-02T12:24:00.922Z,20.50
2023-03-02T12:26:07.510Z,20.74
2023-03-02T12:28:27.289Z,20.43
2023-03-02T12:30:28.881Z,20.29
2023-03-02T12:32:31.566Z,20.14
2023-03-02T12:34:36.894Z,20.41
2023-03-02T12:36:42.938Z,19.92
2023-03-02T12:38:55.487Z,19.59
2023-03-02T12:41:14.561Z,18.77
2023-03-02T12:43:29.782Z,18.96
2023-03-02T12:45:42.932Z,18.85
2023-03-02T12:47:50.001Z,18.35
2023-03-02T12:49:54.950Z,18.09
2023-03-02T12:51:58.659Z,18.44
2023-03-02T12:54:05.083Z,18.58
2023-03-02T12:56:08.262Z,18.70
2023-03-02T12:58:17.226Z,18.77
2023-03-02T13:00:24.686Z,18.72
2023-03-02T13:02:28.311Z,18.76
2023-03-02T13:04:29.909Z,18.43
2023-03-02T13:06:39.182Z,18.13
2023-03-02T13:08:44.517Z,18.22
2023-03-02T13:10:50.328Z,18.34
2023-03-02T13:12:52.161Z,18.31
2023-03-02T13:14:56.999Z,18.11
2023-03-02T13:17:02.077Z,18.15
2023-03-02T13:19:11.534Z,17.66
2023-03-02T13:21:14.775Z,17.71
2023-03-02T13:23:17.648Z,17.61
2023-03-02T13:25:27.183Z,17.53
2023-03-02T13:27:29.808Z,17.44
2023-03-02T13:29:31.522Z,16.88
2023-03-02T13:31:34.830Z,17.06
2023-03-02T13:33:44.710Z,16.92
2023-03-02T13:35:47.741Z,16.62
2023-03-02T13:37:59.833Z,16.59
2023-03-02T13:40:03.946Z,16.73
2023-03-02T13:42:05.586Z,16.99
2023-03-02T13:44:18.746Z,16.51
2023-03-02T13:46:34.699Z,16.50
2023-03-02T13:48:37.982Z,16.64
2023-03-02T13:50:39.553Z,16.63
2023-03-02T13:52:41.132Z,16.62
2023-03-02T13:54:45.110Z,16.58
2023-03-02T13:56:46.823Z,16.74
2023-03-02T13:58:48.386Z,16.87
2023-03-02T14:00:50.957Z,16.96
2023-03-02T14:02:52.515Z,16.99
2023-03-02T14:04:56.580Z,16.78
2023-03-02T14:06:58.254Z,16.92
2023-03-02T14:08:59.821Z,16.93
2023-03-02T14:11:03.688Z,16.92
2023-03-02T14:13:08.215Z,16.98
2023-03-02T14:15:14.298Z,17.06
2023-03-02T14:17:21.287Z,17.06
2023-03-02T14:19:22.931Z,17.04
2023-03-02T14:21:26.466Z,17.02
2023-03-02T14:23:28.149Z,16.95
2023-03-02T14:25:32.979Z,16.96
2023-03-02T14:27:34.516Z,16.98
2023-03-02T14:29:36.075Z,17.05
2023-03-02T14:31:37.722Z,17.04
2023-03-02T14:33:39.275Z,17.08
2023-03-02T14:35:41.276Z,17.06
2023-03-02T14:37:47.218Z,17.06
2023-03-02T14:39:50.717Z,17.02
2023-03-02T14:41:54.645Z,17.00
2023-03-02T14:43:56.417Z,17.02
2023-03-02T14:45:58.121Z,16.95
2023-03-02T14:47:59.678Z,17.02
2023-03-02T14:50:01.221Z,16.98
2023-03-02T14:52:06.098Z,16.97
2023-03-02T14:54:14.271Z,16.99
2023-03-02T14:56:17.423Z,16.98
2023-03-02T14:58:25.612Z,17.01
2023-03-02T15:00:27.896Z,16.93
2023-03-02T15:02:29.564Z,16.79
2023-03-02T15:04:31.254Z,16.70
2023-03-02T15:06:36.402Z,16.63
2023-03-02T15:08:38.139Z,16.58
2023-03-02T15:10:42.109Z,16.64
2023-03-02T15:12:43.737Z,16.71
2023-03-02T15:14:45.412Z,16.72
2023-03-02T15:16:46.955Z,16.56
2023-03-02T15:18:48.738Z,16.66
2023-03-02T15:20:50.374Z,16.39
2023-03-02T15:22:52.563Z,16.41
2023-03-02T15:24:54.293Z,16.53
2023-03-02T15:26:57.258Z,16.46
2023-03-02T15:28:58.810Z,16.50
2023-03-02T15:31:09.650Z,16.28
2023-03-02T15:33:11.373Z,16.40
2023-03-02T15:35:12.951Z,16.42
2023-03-02T15:37:15.248Z,16.26
2023-03-02T15:39:17.089Z,16.11
2023-03-02T15:41:28.209Z,16.04
2023-03-02T15:43:31.199Z,16.16
2023-03-02T15:45:32.876Z,16.18
2023-03-02T15:47:34.498Z,16.07
2023-03-02T15:49:36.224Z,16.04
2023-03-02T15:51:38.167Z,16.10
2023-03-02T15:53:40.369Z,16.10
2023-03-02T15:55:41.953Z,16.18
2023-03-02T15:57:43.529Z,16.09
2023-03-02T15:59:46.439Z,16.10
2023-03-02T16:01:48.303Z,16.04
2023-03-02T16:03:50.056Z,16.09
2023-03-02T16:05:52.153Z,16.07
2023-03-02T16:07:53.690Z,16.14
2023-03-02T16:09:55.304Z,16.12
2023-03-02T16:11:57.515Z,16.10
2023-03-02T16:13:59.098Z,16.00
2023-03-02T16:16:03.195Z,15.94
2023-03-02T16:18:04.824Z,15.95
2023-03-02T16:20:07.100Z,15.98
2023-03-02T16:22:08.763Z,15.77
2023-03-02T16:24:10.511Z,15.80
2023-03-02T16:26:14.815Z,15.86
2023-03-02T16:28:17.825Z,15.92
2023-03-02T16:30:21.933Z,15.94
2023-03-02T16:32:26.066Z,15.97
2023-03-02T16:34:27.678Z,15.95
2023-03-02T16:36:29.377Z,15.93
2023-03-02T16:38:30.964Z,15.95
2023-03-02T16:40:33.079Z,15.99
2023-03-02T16:42:34.689Z,15.99
2023-03-02T16:44:36.267Z,15.91
2023-03-02T16:46:38.339Z,15.89
2023-03-02T16:48:41.798Z,15.87
2023-03-02T16:50:43.976Z,15.88
2023-03-02T16:52:45.753Z,15.81
2023-03-02T16:54:47.359Z,15.79
2023-03-02T16:56:48.953Z,15.78
2023-03-02T16:58:50.528Z,15.70
2023-03-02T17:00:52.261Z,15.69
2023-03-02T17:02:54.107Z,15.66
2023-03-02T17:04:57.121Z,15.65
2023-03-02T17:07:00.696Z,15.64
2023-03-02T17:09:02.569Z,15.55
2023-03-02T17:11:04.618Z,15.52
2023-03-02T17:13:06.661Z,15.43
2023-03-02T17:15:09.480Z,15.37
2023-03-02T17:17:11.090Z,15.38
2023-03-02T17:19:12.597Z,15.36
2023-03-02T17:21:16.584Z,15.31
2023-03-02T17:23:18.228Z,15.30
2023-03-02T17:25:19.816Z,15.34
2023-03-02T17:27:25.489Z,15.32
2023-03-02T17:29:27.670Z,15.18
2023-03-02T17:31:29.290Z,15.16
2023-03-02T17:33:30.864Z,15.20
2023-03-02T17:35:32.458Z,15.27
2023-03-02T17:37:35.370Z,15.32
2023-03-02T17:39:36.933Z,15.31
2023-03-02T17:41:38.547Z,15.29
2023-03-02T17:43:41.433Z,15.20
2023-03-02T17:45:43.069Z,15.15
2023-03-02T17:47:44.823Z,15.12
2023-03-02T17:49:46.758Z,15.11
2023-03-02T17:51:48.402Z,15.05
2023-03-02T17:53:53.060Z,15.01
2023-03-02T17:55:54.609Z,14.98
2023-03-02T17:57:56.221Z,14.96
2023-03-02T17:59:57.875Z,14.91
2023-03-02T18:01:59.455Z,14.90
2023-03-02T18:04:01.174Z,14.89
2023-03-02T18:06:02.955Z,14.80
2023-03-02T18:08:04.884Z,14.74
2023-03-02T18:10:09.024Z,14.74
2023-03-02T18:12:10.590Z,14.66
2023-03-02T18:14:15.094Z,14.61
2023-03-02T18:16:16.902Z,14.61
2023-03-02T18:18:18.538Z,14.65
2023-03-02T18:20:20.302Z,14.70
2023-03-02T18:22:21.891Z,14.72
2023-03-02T18:24:23.473Z,14.58
2023-03-02T18:26:27.463Z,14.47
2023-03-02T18:28:31.809Z,14.41
2023-03-02T18:30:33.414Z,14.38
2023-03-02T18:32:35.088Z,14.42
2023-03-02T18:34:36.623Z,14.41
2023-03-02T18:36:38.191Z,14.36
2023-03-02T18:38:40.454Z,14.35
2023-03-02T18:40:41.990Z,14.32
2023-03-02T18:42:44.950Z,14.32
2023-03-02T18:44:46.489Z,14.26
2023-03-02T18:46:48.094Z,14.20
2023-03-02T18:48:50.586Z,14.14
2023-03-02T18:50:52.100Z,14.11
2023-03-02T18:52:53.817Z,14.04
2023-03-02T18:54:55.430Z,14.08
2023-03-02T18:56:56.995Z,14.02
2023-03-02T18:58:59.891Z,14.02
2023-03-02T19:01:02.144Z,14.03
2023-03-02T19:03:03.752Z,14.03
2023-03-02T19:05:05.329Z,13.99
2023-03-02T19:07:06.874Z,13.89
2023-03-02T19:09:08.439Z,13.82
2023-03-02T19:11:10.557Z,13.65
2023-03-02T19:13:12.144Z,13.45
2023-03-02T19:15:15.426Z,13.44
2023-03-02T19:17:17.240Z,13.41
2023-03-02T19:19:18.860Z,13.36
2023-03-02T19:21:20.499Z,13.36
2023-03-02T19:23:22.108Z,13.40
2023-03-02T19:25:23.731Z,13.29
2023-03-02T19:27:25.305Z,13.21
2023-03-02T19:29:27.147Z,13.27
2023-03-02T19:31:30.294Z,13.13
2023-03-02T19:33:32.280Z,13.09
2023-03-02T19:35:34.381Z,13.05
2023-03-02T19:37:39.087Z,13.07
2023-03-02T19:39:40.962Z,13.04
2023-03-02T19:41:42.559Z,13.08
2023-03-02T19:43:44.579Z,13.06
2023-03-02T19:45:46.166Z,13.08
2023-03-02T19:47:49.218Z,13.07
2023-03-02T19:49:50.936Z,13.11
2023-03-02T19:51:52.506Z,13.05
2023-03-02T19:53:54.147Z,12.98
2023-03-02T19:55:59.764Z,13.00
2023-03-02T19:58:01.356Z,13.01
2023-03-02T20:00:04.207Z,12.99
2023-03-02T20:02:06.101Z,13.01
2023-03-02T20:04:09.039Z,12.97
2023-03-02T20:06:10.667Z,12.98
2023-03-02T20:08:12.337Z,13.01
2023-03-02T20:10:25.460Z,12.98
2023-03-02T20:12:27.116Z,12.80
2023-03-02T20:14:33.799Z,12.77
2023-03-02T20:16:36.070Z,12.81
2023-03-02T20:18:37.668Z,12.84
2023-03-02T20:20:41.421Z,12.82
2023-03-02T20:22:43.174Z,12.79
2023-03-02T20:24:44.739Z,12.76
2023-03-02T20:26:46.416Z,12.76
2023-03-02T20:28:48.564Z,12.80
2023-03-02T20:30:53.035Z,12.75
2023-03-02T20:32:56.413Z,12.71
2023-03-02T20:34:58.165Z,12.65
2023-03-02T20:37:03.142Z,12.62
2023-03-02T20:39:08.614Z,12.62
2023-03-02T20:41:11.141Z,12.64
2023-03-02T20:43:12.891Z,12.62
2023-03-02T20:45:14.628Z,12.63
2023-03-02T20:47:16.826Z,12.67
2023-03-02T20:49:18.897Z,12.64
2023-03-02T20:51:21.655Z,12.65
2023-03-02T20:53:27.931Z,12.59
2023-03-02T20:55:31.083Z,12.65
2023-03-02T20:57:33.024Z,12.59
2023-03-02T20:59:35.108Z,12.52
2023-03-02T21:01:36.935Z,12.51
2023-03-02T21:03:40.600Z,12.52
2023-03-02T21:05:42.651Z,12.45
2023-03-02T21:07:44.725Z,12.43
2023-03-02T21:09:47.708Z,12.46
2023-03-02T21:11:49.583Z,12.37
2023-03-02T21:13:53.083Z,12.29
2023-03-02T21:15:54.762Z,12.31
2023-03-02T21:17:56.850Z,12.23
2023-03-02T21:19:58.469Z,12.24
2023-03-02T21:22:02.436Z,12.28
2023-03-02T21:24:04.561Z,12.28
2023-03-02T21:26:07.756Z,12.22
2023-03-02T21:28:09.402Z,12.18
2023-03-02T21:30:16.210Z,12.23
2023-03-02T21:32:17.865Z,12.18
2023-03-02T21:34:19.760Z,12.07
2023-03-02T21:36:23.578Z,12.06
2023-03-02T21:38:25.172Z,12.00
2023-03-02T21:40:31.344Z,12.05
2023-03-02T21:42:35.230Z,11.98
2023-03-02T21:44:36.811Z,11.91
2023-03-02T21:46:39.063Z,11.94
2023-03-02T21:48:40.710Z,11.91
2023-03-02T21:50:42.984Z,11.84
2023-03-02T21:52:44.806Z,11.76
2023-03-02T21:54:46.353Z,11.69
2023-03-02T21:56:47.936Z,11.69
2023-03-02T21:58:52.568Z,11.65
2023-03-02T22:00:54.155Z,11.57
2023-03-02T22:02:56.018Z,11.58
2023-03-02T22:04:57.710Z,11.57
2023-03-02T22:06:59.238Z,11.61
2023-03-02T22:09:01.211Z,11.56
2023-03-02T22:11:02.855Z,11.54
2023-03-02T22:13:15.318Z,11.53
2023-03-02T22:15:18.269Z,11.59
2023-03-02T22:17:24.111Z,11.67
2023-03-02T22:19:28.265Z,11.64
2023-03-02T22:21:41.153Z,11.62
2023-03-02T22:23:42.927Z,11.54
2023-03-02T22:25:44.875Z,11.47
2023-03-02T22:27:47.184Z,11.48
2023-03-02T22:29:49.408Z,11.41
2023-03-02T22:31:54.277Z,11.39
2023-03-02T22:33:55.871Z,11.36
2023-03-02T22:36:11.620Z,11.30
2023-03-02T22:38:18.686Z,11.24
2023-03-02T22:40:28.005Z,11.27
2023-03-02T22:42:30.531Z,11.26
2023-03-02T22:44:35.014Z,11.25
2023-03-02T22:46:36.621Z,11.18
2023-03-02T22:48:40.581Z,11.06
2023-03-02T22:50:43.568Z,10.98
2023-03-02T22:52:45.125Z,10.89
2023-03-02T22:54:46.826Z,10.81
2023-03-02T22:56:50.795Z,10.87
2023-03-02T22:58:52.937Z,10.89
2023-03-02T23:00:55.118Z,10.83
2023-03-02T23:02:56.831Z,10.83
2023-03-02T23:04:59.736Z,10.78
2023-03-02T23:07:10.464Z,10.82
2023-03-02T23:09:14.268Z,10.83
2023-03-02T23:11:18.934Z,10.77
2023-03-02T23:13:24.651Z,10.68
2023-03-02T23:15:27.742Z,10.64
2023-03-02T23:17:34.939Z,10.65
2023-03-02T23:19:36.950Z,10.69
2023-03-02T23:21:44.416Z,10.67
2023-03-02T23:23:46.219Z,10.61
2023-03-02T23:25:48.139Z,10.60
2023-03-02T23:27:49.696Z,10.57
2023-03-02T23:29:51.708Z,10.57
2023-03-02T23:31:53.775Z,10.48
2023-03-02T23:33:55.572Z,10.48
2023-03-02T23:35:57.287Z,10.40
2023-03-02T23:38:00.379Z,10.45
2023-03-02T23:40:02.215Z,10.47
2023-03-02T23:42:03.941Z,10.40
2023-03-02T23:44:06.543Z,10.41
2023-03-02T23:46:08.268Z,10.46
2023-03-02T23:48:09.940Z,10.41
2023-03-02T23:50:12.661Z,10.41
2023-03-02T23:52:14.180Z,10.43
2023-03-02T23:54:17.344Z,10.42
2023-03-02T23:56:19.332Z,10.40
2023-03-02T23:58:21.271Z,10.38
